Alba Iulia, Romania

11:38 PM EEST on October 23, 2014 (GMT +0300)
Someseni | Change Station
CLOSE
Current Station
Airport
Location: Cluj,
Elevation: 1033 ft
Nearby Weather Stations

Elev 1033 ft 46.78 °N, 23.68 °E | Updated 8 minutes ago

Mostly Cloudy
Mostly Cloudy
50 °F
Feels Like 50 °F
N
2
Wind Variable Wind from Variable

Today
High -- | Low -- °F
--% Chance of Precip.
Yesterday
High -- | Low -- °F
Precip. -- in
7:53 AM 6:26 PM
Waning Crescent, 0% visible
Pressure 29.77 in
Visibility 6.2 miles
Clouds Few 4100 ft
Mostly Cloudy 5200 ft
Dew Point 48 °F
Humidity 94%
Rainfall 0.00 in
Snow Depth Not available.
UV 0 out of 12
Pollen Not available.
Air Quality Not available.
Flu Activity Not available.
METAR LRCL 232030Z VRB02KT 9999 FEW041 BKN052 10/09 Q1008 R07/29//95

More Conditions Fewer Conditions

Pressure 29.77 in
Visibility 6.2 miles
Clouds Few 4100 ft
Mostly Cloudy 5200 ft
Dew Point 48 °F
Humidity 94%
Rainfall 0.00 in
Snow Depth Not available.
UV 0 out of 12
Pollen Not available.
Air Quality Not available.
Flu Activity Not available.
METAR LRCL 232030Z VRB02KT 9999 FEW041 BKN052 10/09 Q1008 R07/29//95

More Conditions Fewer Conditions

10-Day Weather Forecast

Almanac

Astronomy

Oct. 23, 2014 Rise Set
Actual Time 7:53 AM EEST 6:26 PM EEST
Civil Twilight 7:22 AM EEST 6:56 PM EEST
Nautical Twilight 6:47 AM EEST 7:31 PM EEST
Astronomical Twilight 6:13 AM EEST 8:06 PM EEST
Moon 7:12 AM EEST 6:17 PM EEST
Length of Visible Light 11h 34m
Length of Day
10h 32m
Tomorrow will be 3m 4s shorter.
Waning Crescent, 0% of the Moon is Illuminated
Today
Waning Crescent
Oct 23
New
Oct 30
First Quarter
Nov 6
Full
Nov 14
Last Quarter

Today's Extremes

Country Highs Country Lows

Community

WunderPhotos

Upload Photos

1,764,361 photos uploaded!

WunderBlogs® & News

By Dr. Jeff Masters
Director of Meteorology, Weather Underground
By Kari Strenfel
Meteorologist, Weather Underground
By Christopher C. Burt
Weather Historian, Weather Underground
October 23, 2014
October 23, 2014
October 23, 2014

Nearby

Snow Depth

Not available.

Earthquake Activity

City Distance Mag. Time & Date
No recent earthquake activity has been reported nearby.
Minimum magnitude displayed is 2.5.

Coastal Water Temperatures

Place Temperature
No Stations Reporting

Nearby Weather Stations